createdAt,value
2018-05-12T00:00:50.505Z,984.213
2018-05-12T00:02:50.592Z,984.212
2018-05-12T00:04:50.023Z,984.230
2018-05-12T00:06:50.222Z,984.226
2018-05-12T00:08:50.417Z,984.234
2018-05-12T00:10:50.531Z,984.237
2018-05-12T00:12:49.781Z,984.240
2018-05-12T00:14:50.023Z,984.237
2018-05-12T00:16:50.360Z,984.229
2018-05-12T00:18:50.679Z,984.262
2018-05-12T00:20:49.992Z,984.268
2018-05-12T00:22:50.234Z,984.274
2018-05-12T00:24:50.455Z,984.291
2018-05-12T00:26:49.818Z,984.291
2018-05-12T00:28:50.130Z,984.277
2018-05-12T00:30:50.417Z,984.293
2018-05-12T00:32:49.640Z,984.297
2018-05-12T00:34:50.062Z,984.301
2018-05-12T00:36:50.338Z,984.293
2018-05-12T00:38:50.526Z,984.288
2018-05-12T00:40:49.747Z,984.241
2018-05-12T00:42:50.138Z,984.227
2018-05-12T00:44:49.775Z,984.227
2018-05-12T00:46:50.199Z,984.222
2018-05-12T00:48:50.391Z,984.191
2018-05-12T00:50:50.602Z,984.180
2018-05-12T00:52:49.731Z,984.186
2018-05-12T00:54:49.875Z,984.186
2018-05-12T00:56:50.344Z,984.186
2018-05-12T00:58:50.621Z,984.185
2018-05-12T01:00:49.817Z,984.181
2018-05-12T01:02:49.954Z,984.186
2018-05-12T01:04:50.291Z,984.192
2018-05-12T01:06:50.509Z,984.195
2018-05-12T01:08:49.665Z,984.169
2018-05-12T01:10:49.826Z,984.172
2018-05-12T01:12:50.003Z,984.179
2018-05-12T01:14:50.205Z,984.165
2018-05-12T01:16:50.592Z,984.164
2018-05-12T01:18:49.748Z,984.158
2018-05-12T01:20:49.881Z,984.143
2018-05-12T01:22:50.022Z,984.138
2018-05-12T01:24:50.210Z,984.137
2018-05-12T01:26:50.409Z,984.133
2018-05-12T01:28:50.579Z,984.110
2018-05-12T01:30:49.711Z,984.085
2018-05-12T01:32:49.948Z,984.072
2018-05-12T01:34:50.342Z,984.064
2018-05-12T01:36:49.678Z,984.060
2018-05-12T01:38:49.891Z,984.059
2018-05-12T01:40:50.109Z,984.032
2018-05-12T01:42:50.279Z,984.047
2018-05-12T01:44:50.442Z,984.063
2018-05-12T01:46:49.754Z,984.066
2018-05-12T01:48:49.956Z,984.072
2018-05-12T01:50:50.121Z,984.085
2018-05-12T01:52:50.431Z,984.085
2018-05-12T01:54:49.709Z,984.084
2018-05-12T01:56:49.957Z,984.090
2018-05-12T01:58:50.069Z,984.100
2018-05-12T02:00:50.292Z,984.085
2018-05-12T02:02:50.478Z,984.084
2018-05-12T02:04:50.077Z,984.094
2018-05-12T02:06:50.397Z,984.102
2018-05-12T02:08:50.239Z,984.111
2018-05-12T02:10:50.427Z,984.140
2018-05-12T02:12:49.799Z,984.172
2018-05-12T02:14:49.964Z,984.186
2018-05-12T02:16:50.295Z,984.211
2018-05-12T02:18:50.557Z,984.235
2018-05-12T02:20:49.776Z,984.247
2018-05-12T02:22:50.125Z,984.258
2018-05-12T02:24:50.286Z,984.250
2018-05-12T02:26:49.652Z,984.242
2018-05-12T02:28:49.864Z,984.242
2018-05-12T02:30:50.099Z,984.241
2018-05-12T02:32:50.317Z,984.228
2018-05-12T02:34:49.694Z,984.210
2018-05-12T02:36:50.045Z,984.220
2018-05-12T02:38:50.271Z,984.228
2018-05-12T02:40:50.575Z,984.236
2018-05-12T02:42:49.812Z,984.261
2018-05-12T02:44:50.054Z,984.285
2018-05-12T02:46:50.423Z,984.268
2018-05-12T02:48:49.683Z,984.267
2018-05-12T02:50:49.815Z,984.279
2018-05-12T02:52:49.987Z,984.294
2018-05-12T02:54:50.183Z,984.310
2018-05-12T02:56:50.462Z,984.318
2018-05-12T02:58:49.632Z,984.318
2018-05-12T03:00:49.811Z,984.304
2018-05-12T03:02:50.133Z,984.295
2018-05-12T03:04:49.681Z,984.295
2018-05-12T03:06:49.977Z,984.300
2018-05-12T03:08:50.177Z,984.286
2018-05-12T03:10:50.364Z,984.282
2018-05-12T03:12:50.637Z,984.284
2018-05-12T03:14:49.825Z,984.282
2018-05-12T03:16:50.099Z,984.286
2018-05-12T03:18:50.309Z,984.291
2018-05-12T03:20:50.420Z,984.286
2018-05-12T03:22:50.557Z,984.290
2018-05-12T03:24:49.711Z,984.295
2018-05-12T03:26:50.086Z,984.311
2018-05-12T03:28:50.256Z,984.301
2018-05-12T03:30:50.415Z,984.312
2018-05-12T03:32:50.566Z,984.330
2018-05-12T03:34:50.062Z,984.355
2018-05-12T03:36:50.388Z,984.376
2018-05-12T03:38:50.612Z,984.374
2018-05-12T03:40:49.777Z,984.375
2018-05-12T03:42:49.922Z,984.391
2018-05-12T03:44:50.116Z,984.398
2018-05-12T03:46:50.381Z,984.406
2018-05-12T03:48:50.572Z,984.421
2018-05-12T03:50:49.710Z,984.437
2018-05-12T03:52:49.813Z,984.467
2018-05-12T03:54:49.961Z,984.464
2018-05-12T03:56:50.236Z,984.481
2018-05-12T03:58:50.361Z,984.495
2018-05-12T04:00:50.490Z,984.488
2018-05-12T04:02:50.586Z,984.496
2018-05-12T04:04:49.909Z,984.469
2018-05-12T04:06:49.780Z,984.456
2018-05-12T04:08:49.972Z,984.461
2018-05-12T04:10:50.167Z,984.483
2018-05-12T04:12:49.945Z,984.483
2018-05-12T04:14:50.231Z,984.500
2018-05-12T04:16:50.542Z,984.534
2018-05-12T04:18:49.641Z,984.551
2018-05-12T04:20:49.925Z,984.556
2018-05-12T04:22:50.181Z,984.564
2018-05-12T04:24:50.433Z,984.586
2018-05-12T04:26:50.240Z,984.587
2018-05-12T04:28:50.483Z,984.579
2018-05-12T04:30:49.707Z,984.605
2018-05-12T04:32:49.869Z,984.625
2018-05-12T04:34:50.204Z,984.628
2018-05-12T04:36:50.452Z,984.641
2018-05-12T04:38:50.573Z,984.625
2018-05-12T04:40:49.694Z,984.639
2018-05-12T04:42:49.962Z,984.646
2018-05-12T04:44:50.209Z,984.637
2018-05-12T04:46:50.604Z,984.658
2018-05-12T04:48:49.899Z,984.665
2018-05-12T04:50:50.183Z,984.665
2018-05-12T04:52:50.496Z,984.711
2018-05-12T04:54:49.638Z,984.723
2018-05-12T04:56:49.881Z,984.723
2018-05-12T04:58:50.015Z,984.755
2018-05-12T05:00:50.122Z,984.755
2018-05-12T05:02:50.284Z,984.796
2018-05-12T05:04:49.688Z,984.795
2018-05-12T05:06:49.892Z,984.803
2018-05-12T05:08:50.040Z,984.795
2018-05-12T05:10:50.246Z,984.803
2018-05-12T05:12:50.351Z,984.808
2018-05-12T05:14:50.530Z,984.801
2018-05-12T05:16:49.850Z,984.776
2018-05-12T05:18:50.020Z,984.751
2018-05-12T05:20:50.221Z,984.749
2018-05-12T05:22:50.378Z,984.766
2018-05-12T05:24:49.691Z,984.779
2018-05-12T05:26:50.035Z,984.794
2018-05-12T05:28:50.235Z,984.796
2018-05-12T05:30:50.511Z,984.796
2018-05-12T05:32:49.860Z,984.770
2018-05-12T05:34:50.393Z,984.761
2018-05-12T05:36:50.264Z,984.760
2018-05-12T05:38:50.465Z,984.755
2018-05-12T05:40:49.633Z,984.754
2018-05-12T05:42:49.836Z,984.735
2018-05-12T05:44:50.029Z,984.731
2018-05-12T05:46:50.375Z,984.736
2018-05-12T05:48:49.648Z,984.746
2018-05-12T05:50:49.781Z,984.739
2018-05-12T05:52:49.920Z,984.754
2018-05-12T05:54:50.135Z,984.770
2018-05-12T05:56:50.414Z,984.776
2018-05-12T05:58:50.465Z,984.795
2018-05-12T06:00:50.587Z,984.794
2018-05-12T06:02:49.696Z,984.797
2018-05-12T06:04:50.006Z,984.791
2018-05-12T06:06:50.365Z,984.786
2018-05-12T06:08:49.794Z,984.791
2018-05-12T06:10:49.993Z,984.778
2018-05-12T06:12:50.207Z,984.769
2018-05-12T06:14:50.381Z,984.753
2018-05-12T06:16:49.749Z,984.740
2018-05-12T06:18:50.055Z,984.745
2018-05-12T06:20:50.247Z,984.731
2018-05-12T06:22:50.425Z,984.716
2018-05-12T06:24:49.632Z,984.689
2018-05-12T06:26:49.976Z,984.689
2018-05-12T06:28:50.200Z,984.632
2018-05-12T06:30:50.357Z,984.575
2018-05-12T06:32:50.545Z,984.565
2018-05-12T06:34:50.002Z,984.534
2018-05-12T06:36:50.267Z,984.517
2018-05-12T06:38:50.437Z,984.522
2018-05-12T06:40:50.573Z,984.529
2018-05-12T06:42:49.835Z,984.537
2018-05-12T06:44:50.238Z,984.534
2018-05-12T06:46:49.648Z,984.540
2018-05-12T06:48:49.797Z,984.548
2018-05-12T06:50:50.124Z,984.556
2018-05-12T06:52:50.462Z,984.584
2018-05-12T06:54:49.852Z,984.570
2018-05-12T06:56:50.064Z,984.579
2018-05-12T06:58:50.196Z,984.575
2018-05-12T07:00:50.280Z,984.573
2018-05-12T07:02:50.381Z,984.532
2018-05-12T07:04:49.793Z,984.525
2018-05-12T07:06:50.085Z,984.526
2018-05-12T07:08:50.224Z,984.533
2018-05-12T07:10:50.476Z,984.535
2018-05-12T07:12:49.758Z,984.531
2018-05-12T07:14:49.930Z,984.533
2018-05-12T07:16:50.215Z,984.504
2018-05-12T07:18:50.433Z,984.484
2018-05-12T07:20:50.619Z,984.477
2018-05-12T07:22:49.841Z,984.467
2018-05-12T07:24:49.993Z,984.451
2018-05-12T07:26:50.212Z,984.431
2018-05-12T07:28:50.348Z,984.411
2018-05-12T07:30:50.467Z,984.367
2018-05-12T07:32:50.593Z,984.364
2018-05-12T07:34:49.908Z,984.342
2018-05-12T07:36:50.213Z,984.337
2018-05-12T07:38:50.349Z,984.331
2018-05-12T07:40:50.429Z,984.332
2018-05-12T07:42:49.704Z,984.322
2018-05-12T07:44:49.874Z,984.311
2018-05-12T07:46:50.196Z,984.290
2018-05-12T07:48:50.394Z,984.272
2018-05-12T07:50:50.502Z,984.256
2018-05-12T07:52:49.728Z,984.256
2018-05-12T07:54:49.842Z,984.245
2018-05-12T07:56:50.132Z,984.226
2018-05-12T07:58:50.588Z,984.211
2018-05-12T08:00:49.690Z,984.175
2018-05-12T08:02:49.849Z,984.180
2018-05-12T08:04:50.350Z,984.153
2018-05-12T08:06:49.885Z,984.152
2018-05-12T08:08:50.293Z,984.129
2018-05-12T08:10:49.809Z,984.076
2018-05-12T08:12:50.411Z,984.050
2018-05-12T08:14:50.331Z,984.018
2018-05-12T08:16:49.829Z,984.009
2018-05-12T08:18:49.993Z,984.005
2018-05-12T08:20:50.161Z,983.996
2018-05-12T08:22:50.305Z,983.996
2018-05-12T08:24:50.429Z,983.978
2018-05-12T08:26:49.925Z,983.958
2018-05-12T08:28:50.212Z,983.957
2018-05-12T08:30:50.353Z,983.934
2018-05-12T08:32:50.504Z,983.930
2018-05-12T08:34:49.755Z,983.890
2018-05-12T08:36:49.979Z,983.881
2018-05-12T08:38:50.176Z,983.842
2018-05-12T08:40:50.360Z,983.792
2018-05-12T08:42:50.495Z,983.792
2018-05-12T08:44:49.677Z,983.733
2018-05-12T08:46:49.865Z,983.744
2018-05-12T08:48:50.111Z,983.734
2018-05-12T08:50:50.349Z,983.711
2018-05-12T08:52:50.498Z,983.703
2018-05-12T08:54:50.615Z,983.691
2018-05-12T08:56:50.003Z,983.664
2018-05-12T08:58:50.387Z,983.656
2018-05-12T09:00:50.569Z,983.644
2018-05-12T09:02:49.836Z,983.661
2018-05-12T09:04:50.201Z,983.654
2018-05-12T09:06:50.564Z,983.632
2018-05-12T09:08:49.727Z,983.624
2018-05-12T09:10:49.863Z,983.608
2018-05-12T09:12:50.026Z,983.603
2018-05-12T09:14:50.229Z,983.587
2018-05-12T09:16:50.570Z,983.547
2018-05-12T09:18:49.787Z,983.557
2018-05-12T09:20:49.954Z,983.578
2018-05-12T09:22:50.245Z,983.586
2018-05-12T09:24:50.471Z,983.586
2018-05-12T09:26:49.773Z,983.577
2018-05-12T09:28:50.010Z,983.572
2018-05-12T09:30:50.244Z,983.549
2018-05-12T09:32:50.388Z,983.540
2018-05-12T09:34:49.889Z,983.519
2018-05-12T09:36:50.200Z,983.510
2018-05-12T09:38:50.370Z,983.498
2018-05-12T09:40:50.572Z,983.472
2018-05-12T09:42:49.794Z,983.445
2018-05-12T09:44:50.129Z,983.403
2018-05-12T09:46:49.675Z,983.399
2018-05-12T09:48:50.019Z,983.388
2018-05-12T09:50:50.255Z,983.344
2018-05-12T09:52:50.474Z,983.330
2018-05-12T09:54:49.685Z,983.324
2018-05-12T09:56:49.920Z,983.305
2018-05-12T09:58:50.138Z,983.282
2018-05-12T10:00:50.355Z,983.272
2018-05-12T10:02:50.574Z,983.239
2018-05-12T10:04:49.962Z,983.239
2018-05-12T10:06:50.252Z,983.165
2018-05-12T10:08:50.426Z,983.145
2018-05-12T10:10:50.598Z,983.146
2018-05-12T10:12:50.061Z,983.125
2018-05-12T10:14:50.562Z,983.112
2018-05-12T10:16:49.969Z,983.084
2018-05-12T10:18:50.324Z,983.080
2018-05-12T10:20:50.562Z,983.059
2018-05-12T10:22:49.932Z,983.034
2018-05-12T10:24:50.273Z,983.051
2018-05-12T10:26:50.603Z,983.036
2018-05-12T10:28:49.946Z,983.000
2018-05-12T10:30:50.278Z,982.982
2018-05-12T10:32:50.523Z,982.912
2018-05-12T10:34:49.858Z,982.882
2018-05-12T10:36:50.233Z,982.851
2018-05-12T10:38:50.495Z,982.810
2018-05-12T10:40:49.726Z,982.764
2018-05-12T10:42:49.900Z,982.741
2018-05-12T10:44:50.148Z,982.736
2018-05-12T10:46:49.649Z,982.712
2018-05-12T10:48:49.831Z,982.663
2018-05-12T10:50:49.955Z,982.646
2018-05-12T10:52:50.114Z,982.604
2018-05-12T10:54:50.262Z,982.610
2018-05-12T10:56:49.618Z,982.575
2018-05-12T10:58:49.800Z,982.517
2018-05-12T11:00:50.054Z,982.492
2018-05-12T11:02:50.351Z,982.443
2018-05-12T11:04:49.650Z,982.443
2018-05-12T11:06:49.871Z,982.365
2018-05-12T11:08:50.034Z,982.316
2018-05-12T11:10:50.170Z,982.305
2018-05-12T11:12:50.291Z,982.241
2018-05-12T11:14:50.458Z,982.212
2018-05-12T11:16:49.778Z,982.189
2018-05-12T11:18:49.944Z,982.166
2018-05-12T11:20:50.133Z,982.141
2018-05-12T11:22:50.377Z,982.106
2018-05-12T11:24:50.556Z,982.066
2018-05-12T11:26:49.852Z,982.048
2018-05-12T11:28:50.022Z,982.035
2018-05-12T11:30:50.212Z,981.994
2018-05-12T11:32:50.311Z,981.942
2018-05-12T11:34:49.677Z,981.922
2018-05-12T11:36:49.942Z,981.927
2018-05-12T11:38:50.561Z,981.902
2018-05-12T11:40:49.804Z,981.872
2018-05-12T11:42:49.943Z,981.857
2018-05-12T11:44:50.264Z,981.823
2018-05-12T11:46:50.613Z,981.816
2018-05-12T11:48:49.823Z,981.778
2018-05-12T11:50:50.022Z,981.754
2018-05-12T11:52:50.237Z,981.714
2018-05-12T11:54:50.508Z,981.679
2018-05-12T11:56:49.939Z,981.663
2018-05-12T11:58:50.226Z,981.632
2018-05-12T12:00:50.437Z,981.621
2018-05-12T12:02:49.672Z,981.609
2018-05-12T12:04:50.035Z,981.593
2018-05-12T12:06:50.536Z,981.571
2018-05-12T12:08:49.714Z,981.529
2018-05-12T12:10:49.869Z,981.482
2018-05-12T12:12:49.998Z,981.450
2018-05-12T12:14:50.207Z,981.475
2018-05-12T12:16:50.636Z,981.491
2018-05-12T12:18:49.799Z,981.467
2018-05-12T12:20:50.003Z,981.467
2018-05-12T12:22:50.176Z,981.374
2018-05-12T12:24:50.290Z,981.339
2018-05-12T12:26:50.611Z,981.271
2018-05-12T12:28:49.786Z,981.295
2018-05-12T12:30:49.950Z,981.315
2018-05-12T12:32:50.119Z,981.274
2018-05-12T12:34:50.449Z,981.243
2018-05-12T12:36:49.640Z,981.200
2018-05-12T12:38:49.779Z,981.142
2018-05-12T12:40:49.946Z,981.097
2018-05-12T12:42:50.080Z,981.084
2018-05-12T12:44:50.249Z,981.079
2018-05-12T12:46:50.592Z,981.052
2018-05-12T12:48:49.929Z,981.020
2018-05-12T12:50:50.146Z,981.020
2018-05-12T12:52:50.333Z,980.956
2018-05-12T12:54:50.474Z,980.931
2018-05-12T12:56:49.839Z,980.893
2018-05-12T12:58:50.191Z,980.865
2018-05-12T13:00:50.522Z,980.828
2018-05-12T13:02:49.650Z,980.828
2018-05-12T13:04:50.541Z,980.788
2018-05-12T13:06:50.304Z,980.794
2018-05-12T13:08:50.611Z,980.772
2018-05-12T13:10:50.042Z,980.751
2018-05-12T13:12:50.188Z,980.695
2018-05-12T13:14:50.441Z,980.687
2018-05-12T13:16:49.713Z,980.671
2018-05-12T13:18:49.933Z,980.629
2018-05-12T13:20:50.121Z,980.581
2018-05-12T13:22:50.204Z,980.542
2018-05-12T13:24:50.368Z,980.531
2018-05-12T13:26:50.543Z,980.502
2018-05-12T13:28:49.754Z,980.482
2018-05-12T13:30:49.937Z,980.446
2018-05-12T13:32:50.236Z,980.403
2018-05-12T13:34:50.605Z,980.400
2018-05-12T13:36:49.904Z,980.359
2018-05-12T13:38:50.265Z,980.358
2018-05-12T13:40:50.518Z,980.324
2018-05-12T13:42:49.714Z,980.298
2018-05-12T13:44:49.904Z,980.307
2018-05-12T13:46:50.250Z,980.271
2018-05-12T13:48:49.663Z,980.242
2018-05-12T13:50:49.888Z,980.218
2018-05-12T13:52:50.363Z,980.175
2018-05-12T13:54:50.570Z,980.172
2018-05-12T13:56:49.983Z,980.156
2018-05-12T13:58:50.481Z,980.154
2018-05-12T14:00:49.761Z,980.107
2018-05-12T14:02:49.977Z,980.107
2018-05-12T14:04:50.459Z,980.049
2018-05-12T14:06:49.838Z,980.053
2018-05-12T14:08:50.094Z,980.062
2018-05-12T14:10:50.442Z,980.015
2018-05-12T14:12:49.751Z,979.998
2018-05-12T14:14:50.050Z,979.980
2018-05-12T14:16:50.495Z,979.956
2018-05-12T14:18:49.758Z,979.952
2018-05-12T14:20:50.080Z,979.922
2018-05-12T14:22:50.472Z,979.919
2018-05-12T14:24:49.807Z,979.895
2018-05-12T14:26:50.171Z,979.883
2018-05-12T14:28:50.380Z,979.864
2018-05-12T14:30:50.610Z,979.846
2018-05-12T14:32:50.035Z,979.825
2018-05-12T14:34:50.571Z,979.797
2018-05-12T14:36:49.825Z,979.807
2018-05-12T14:38:49.983Z,979.788
2018-05-12T14:40:50.214Z,979.728
2018-05-12T14:42:50.636Z,979.684
2018-05-12T14:44:50.147Z,979.650
2018-05-12T14:46:50.437Z,979.634
2018-05-12T14:48:50.633Z,979.592
2018-05-12T14:50:49.761Z,979.588
2018-05-12T14:52:50.000Z,979.588
2018-05-12T14:54:50.147Z,979.581
2018-05-12T14:56:50.489Z,979.563
2018-05-12T14:58:49.706Z,979.508
2018-05-12T15:00:49.941Z,979.464
2018-05-12T15:02:50.051Z,979.451
2018-05-12T15:04:50.379Z,979.438
2018-05-12T15:06:49.717Z,979.426
2018-05-12T15:08:49.937Z,979.407
2018-05-12T15:10:50.074Z,979.379
2018-05-12T15:12:50.224Z,979.357
2018-05-12T15:14:50.666Z,979.328
2018-05-12T15:16:50.270Z,979.368
2018-05-12T15:18:50.560Z,979.356
2018-05-12T15:20:49.875Z,979.321
2018-05-12T15:22:50.283Z,979.288
2018-05-12T15:24:50.479Z,979.260
2018-05-12T15:26:49.880Z,979.205
2018-05-12T15:28:50.022Z,979.171
2018-05-12T15:30:50.185Z,979.125
2018-05-12T15:32:50.331Z,979.103
2018-05-12T15:34:49.849Z,979.089
2018-05-12T15:36:50.175Z,979.081
2018-05-12T15:38:50.339Z,979.029
2018-05-12T15:40:50.484Z,979.010
2018-05-12T15:42:49.813Z,979.007
2018-05-12T15:44:50.069Z,979.004
2018-05-12T15:46:50.285Z,978.988
2018-05-12T15:48:50.435Z,978.955
2018-05-12T15:50:50.599Z,978.932
2018-05-12T15:52:49.743Z,978.917
2018-05-12T15:54:49.926Z,978.887
2018-05-12T15:56:50.195Z,978.865
2018-05-12T15:58:50.345Z,978.852
2018-05-12T16:00:50.561Z,978.869
2018-05-12T16:02:49.702Z,978.870
2018-05-12T16:04:50.043Z,978.861
2018-05-12T16:06:50.378Z,978.860
2018-05-12T16:08:50.466Z,978.856
2018-05-12T16:10:50.553Z,978.861
2018-05-12T16:12:49.719Z,978.857
2018-05-12T16:14:49.870Z,978.867
2018-05-12T16:16:50.167Z,978.872
2018-05-12T16:18:50.404Z,978.887
2018-05-12T16:20:50.563Z,978.892
2018-05-12T16:22:49.724Z,978.904
2018-05-12T16:24:49.919Z,978.954
2018-05-12T16:26:50.299Z,978.986
2018-05-12T16:28:50.455Z,978.984
2018-05-12T16:30:49.721Z,978.998
2018-05-12T16:32:49.959Z,978.977
2018-05-12T16:34:50.556Z,978.990
2018-05-12T16:36:49.925Z,978.997
2018-05-12T16:38:50.219Z,978.988
2018-05-12T16:40:50.370Z,978.979
2018-05-12T16:42:50.545Z,978.993
2018-05-12T16:44:49.684Z,978.991
2018-05-12T16:46:49.941Z,978.979
2018-05-12T16:48:50.122Z,978.989
2018-05-12T16:50:50.596Z,978.996
2018-05-12T16:52:50.240Z,978.995
2018-05-12T16:54:50.374Z,978.983
2018-05-12T16:56:49.694Z,979.008
2018-05-12T16:58:49.937Z,979.011
2018-05-12T17:00:50.204Z,978.992
2018-05-12T17:02:50.392Z,978.992
2018-05-12T17:04:49.688Z,978.998
2018-05-12T17:06:50.032Z,978.982
2018-05-12T17:08:50.169Z,978.954
2018-05-12T17:10:50.329Z,978.949
2018-05-12T17:12:50.477Z,978.929
2018-05-12T17:14:50.561Z,978.940
2018-05-12T17:16:49.889Z,978.957
2018-05-12T17:18:50.037Z,978.985
2018-05-12T17:20:50.265Z,978.990
2018-05-12T17:22:50.390Z,978.990
2018-05-12T17:24:50.578Z,978.987
2018-05-12T17:26:49.979Z,978.977
2018-05-12T17:28:50.215Z,978.962
2018-05-12T17:30:50.391Z,978.951
2018-05-12T17:32:49.743Z,978.966
2018-05-12T17:34:50.306Z,978.956
2018-05-12T17:36:50.590Z,978.931
2018-05-12T17:38:49.758Z,978.934
2018-05-12T17:40:50.017Z,978.936
2018-05-12T17:42:50.319Z,978.955
2018-05-12T17:44:50.548Z,978.964
2018-05-12T17:46:49.811Z,978.986
2018-05-12T17:48:50.036Z,978.986
2018-05-12T17:50:50.258Z,979.026
2018-05-12T17:52:50.555Z,979.059
2018-05-12T17:54:49.733Z,979.090
2018-05-12T17:56:50.004Z,979.136
2018-05-12T17:58:50.115Z,979.134
2018-05-12T18:00:50.269Z,979.153
2018-05-12T18:02:50.425Z,979.154
2018-05-12T18:04:49.803Z,979.149
2018-05-12T18:06:50.098Z,979.149
2018-05-12T18:08:50.260Z,979.137
2018-05-12T18:10:50.550Z,979.127
2018-05-12T18:12:49.840Z,979.101
2018-05-12T18:14:50.048Z,979.087
2018-05-12T18:16:50.325Z,979.093
2018-05-12T18:18:50.596Z,979.093
2018-05-12T18:20:49.842Z,979.111
2018-05-12T18:22:50.095Z,979.113
2018-05-12T18:24:50.357Z,979.116
2018-05-12T18:26:49.725Z,979.135
2018-05-12T18:28:50.612Z,979.160
2018-05-12T18:30:49.788Z,979.171
2018-05-12T18:32:49.916Z,979.152
2018-05-12T18:34:50.421Z,979.159
2018-05-12T18:36:49.697Z,979.148
2018-05-12T18:38:49.837Z,979.163
2018-05-12T18:40:50.165Z,979.190
2018-05-12T18:42:50.487Z,979.206
2018-05-12T18:44:49.638Z,979.209
2018-05-12T18:46:49.915Z,979.223
2018-05-12T18:48:50.045Z,979.226
2018-05-12T18:50:50.223Z,979.224
2018-05-12T18:52:50.363Z,979.222
2018-05-12T18:54:50.597Z,979.242
2018-05-12T18:56:49.785Z,979.253
2018-05-12T18:58:49.989Z,979.250
2018-05-12T19:00:50.267Z,979.257
2018-05-12T19:02:50.591Z,979.287
2018-05-12T19:04:50.056Z,979.295
2018-05-12T19:06:49.688Z,979.344
2018-05-12T19:08:50.074Z,979.374
2018-05-12T19:10:50.523Z,979.397
2018-05-12T19:12:49.862Z,979.427
2018-05-12T19:14:50.226Z,979.448
2018-05-12T19:16:50.529Z,979.463
2018-05-12T19:18:49.672Z,979.461
2018-05-12T19:20:49.861Z,979.486
2018-05-12T19:22:50.045Z,979.508
2018-05-12T19:24:50.223Z,979.582
2018-05-12T19:26:50.485Z,979.588
2018-05-12T19:28:49.713Z,979.579
2018-05-12T19:30:49.869Z,979.588
2018-05-12T19:32:50.385Z,979.591
2018-05-12T19:34:50.254Z,979.572
2018-05-12T19:36:50.551Z,979.567
2018-05-12T19:38:49.697Z,979.553
2018-05-12T19:40:49.848Z,979.557
2018-05-12T19:42:50.062Z,979.551
2018-05-12T19:44:50.253Z,979.562
2018-05-12T19:46:49.652Z,979.578
2018-05-12T19:48:49.917Z,979.568
2018-05-12T19:50:50.198Z,979.568
2018-05-12T19:52:50.400Z,979.526
2018-05-12T19:54:49.655Z,979.532
2018-05-12T19:56:50.215Z,979.545
2018-05-12T19:58:49.664Z,979.553
2018-05-12T20:00:49.863Z,979.552
2018-05-12T20:02:50.119Z,979.543
2018-05-12T20:04:50.602Z,979.549
2018-05-12T20:06:49.898Z,979.555
2018-05-12T20:08:50.038Z,979.525
2018-05-12T20:10:50.233Z,979.501
2018-05-12T20:12:50.479Z,979.476
2018-05-12T20:14:49.617Z,979.465
2018-05-12T20:16:49.851Z,979.461
2018-05-12T20:18:50.058Z,979.461
2018-05-12T20:20:50.226Z,979.430
2018-05-12T20:22:50.411Z,979.420
2018-05-12T20:24:50.588Z,979.422
2018-05-12T20:26:49.988Z,979.407
2018-05-12T20:28:50.142Z,979.392
2018-05-12T20:30:50.339Z,979.374
2018-05-12T20:32:50.698Z,979.356
2018-05-12T20:34:50.070Z,979.345
2018-05-12T20:36:50.344Z,979.317
2018-05-12T20:38:50.595Z,979.313
2018-05-12T20:40:49.805Z,979.301
2018-05-12T20:42:49.966Z,979.305
2018-05-12T20:44:50.165Z,979.298
2018-05-12T20:46:50.486Z,979.299
2018-05-12T20:48:49.692Z,979.263
2018-05-12T20:50:49.929Z,979.250
2018-05-12T20:52:50.351Z,979.260
2018-05-12T20:54:50.555Z,979.251
2018-05-12T20:56:49.853Z,979.254
2018-05-12T20:58:49.962Z,979.254
2018-05-12T21:00:50.175Z,979.201
2018-05-12T21:02:50.426Z,979.183
2018-05-12T21:04:50.060Z,979.168
2018-05-12T21:06:50.510Z,979.157
2018-05-12T21:08:49.735Z,979.139
2018-05-12T21:10:49.988Z,979.157
2018-05-12T21:12:50.246Z,979.168
2018-05-12T21:14:50.513Z,979.139
2018-05-12T21:16:49.953Z,979.144
2018-05-12T21:18:50.213Z,979.133
2018-05-12T21:20:50.376Z,979.125
2018-05-12T21:22:50.600Z,979.124
2018-05-12T21:24:49.754Z,979.120
2018-05-12T21:26:49.932Z,979.106
2018-05-12T21:28:50.046Z,979.097
2018-05-12T21:30:50.158Z,979.078
2018-05-12T21:32:50.364Z,979.081
2018-05-12T21:34:49.782Z,979.059
2018-05-12T21:36:50.063Z,979.043
2018-05-12T21:38:50.256Z,979.027
2018-05-12T21:40:50.499Z,979.005
2018-05-12T21:42:49.812Z,979.014
2018-05-12T21:44:49.953Z,979.014
2018-05-12T21:46:50.164Z,979.028
2018-05-12T21:48:50.281Z,979.031
2018-05-12T21:50:50.437Z,979.024
2018-05-12T21:52:50.580Z,979.015
2018-05-12T21:54:49.751Z,978.978
2018-05-12T21:56:49.968Z,978.964
2018-05-12T21:58:50.103Z,978.958
2018-05-12T22:00:50.253Z,978.943
2018-05-12T22:02:50.450Z,978.955
2018-05-12T22:04:49.812Z,978.950
2018-05-12T22:06:50.043Z,978.944
2018-05-12T22:08:50.248Z,978.927
2018-05-12T22:10:50.439Z,978.933
2018-05-12T22:12:49.732Z,978.946
2018-05-12T22:14:50.053Z,978.966
2018-05-12T22:16:50.312Z,978.966
2018-05-12T22:18:50.527Z,979.011
2018-05-12T22:20:49.671Z,979.019
2018-05-12T22:22:49.837Z,979.021
2018-05-12T22:24:50.080Z,979.018
2018-05-12T22:26:50.368Z,979.012
2018-05-12T22:28:50.610Z,979.007
2018-05-12T22:30:49.890Z,979.010
2018-05-12T22:32:50.033Z,978.998
2018-05-12T22:34:50.409Z,979.016
2018-05-12T22:36:49.712Z,979.013
2018-05-12T22:38:49.953Z,979.004
2018-05-12T22:40:50.097Z,979.009
2018-05-12T22:42:50.291Z,979.004
2018-05-12T22:44:50.481Z,979.017
2018-05-12T22:46:49.729Z,979.015
2018-05-12T22:48:49.923Z,979.018
2018-05-12T22:50:50.072Z,979.018
2018-05-12T22:52:50.308Z,979.007
2018-05-12T22:54:49.671Z,979.044
2018-05-12T22:56:50.202Z,979.038
2018-05-12T22:58:50.453Z,979.016
2018-05-12T23:00:49.781Z,978.989
2018-05-12T23:02:49.998Z,978.960
2018-05-12T23:04:50.520Z,978.951
2018-05-12T23:06:49.853Z,978.945
2018-05-12T23:08:49.989Z,978.958
2018-05-12T23:10:50.239Z,978.941
2018-05-12T23:12:50.519Z,978.948
2018-05-12T23:14:49.715Z,978.948
2018-05-12T23:16:50.012Z,978.929
2018-05-12T23:18:50.188Z,978.899
2018-05-12T23:20:50.350Z,978.889
2018-05-12T23:22:50.605Z,978.869
2018-05-12T23:24:49.883Z,978.873
2018-05-12T23:26:50.297Z,978.867
2018-05-12T23:28:50.443Z,978.854
2018-05-12T23:30:50.580Z,978.832
2018-05-12T23:32:49.766Z,978.806
2018-05-12T23:34:50.084Z,978.792
2018-05-12T23:36:50.381Z,978.784
2018-05-12T23:38:50.548Z,978.771
2018-05-12T23:40:49.650Z,978.789
2018-05-12T23:42:49.882Z,978.802
2018-05-12T23:44:49.971Z,978.805
2018-05-12T23:46:50.215Z,978.781
2018-05-12T23:48:50.446Z,978.766
2018-05-12T23:50:50.563Z,978.771
2018-05-12T23:52:49.889Z,978.749
2018-05-12T23:54:50.030Z,978.726
2018-05-12T23:56:50.329Z,978.701
2018-05-12T23:58:50.450Z,978.654
